sensor_id;sensor_type;location;lat;lon;timestamp;temperature;humidity
31991;DHT22;18508;49.386;8.370;2022-07-30T00:00:24;20.80;1.00
31991;DHT22;18508;49.386;8.370;2022-07-30T00:02:52;20.80;1.00
31991;DHT22;18508;49.386;8.370;2022-07-30T00:05:20;20.70;1.00
31991;DHT22;18508;49.386;8.370;2022-07-30T00:07:49;20.70;1.00
31991;DHT22;18508;49.386;8.370;2022-07-30T00:10:17;20.70;1.00
31991;DHT22;18508;49.386;8.370;2022-07-30T00:12:48;21.00;8.40
31991;DHT22;18508;49.386;8.370;2022-07-30T00:15:16;20.60;1.00
31991;DHT22;18508;49.386;8.370;2022-07-30T00:17:44;20.60;1.00
31991;DHT22;18508;49.386;8.370;2022-07-30T00:20:15;20.60;1.00
31991;DHT22;18508;49.386;8.370;2022-07-30T00:22:44;20.50;1.00
31991;DHT22;18508;49.386;8.370;2022-07-30T00:25:14;20.50;11.70
31991;DHT22;18508;49.386;8.370;2022-07-30T00:27:42;20.50;10.60
31991;DHT22;18508;49.386;8.370;2022-07-30T00:30:11;20.60;9.60
31991;DHT22;18508;49.386;8.370;2022-07-30T00:32:39;20.50;8.50
31991;DHT22;18508;49.386;8.370;2022-07-30T00:35:08;20.50;8.70
31991;DHT22;18508;49.386;8.370;2022-07-30T00:37:36;20.50;7.00
31991;DHT22;18508;49.386;8.370;2022-07-30T00:40:06;20.40;7.10
31991;DHT22;18508;49.386;8.370;2022-07-30T00:42:40;20.40;7.70
31991;DHT22;18508;49.386;8.370;2022-07-30T00:45:10;20.40;8.20
31991;DHT22;18508;49.386;8.370;2022-07-30T00:47:38;20.30;8.10
31991;DHT22;18508;49.386;8.370;2022-07-30T00:50:08;20.30;8.20
31991;DHT22;18508;49.386;8.370;2022-07-30T00:52:37;20.20;8.30
31991;DHT22;18508;49.386;8.370;2022-07-30T00:55:08;20.20;7.80
31991;DHT22;18508;49.386;8.370;2022-07-30T00:57:36;20.20;8.00
31991;DHT22;18508;49.386;8.370;2022-07-30T01:00:09;20.10;7.90
31991;DHT22;18508;49.386;8.370;2022-07-30T01:02:37;20.10;7.70
31991;DHT22;18508;49.386;8.370;2022-07-30T01:05:06;20.10;7.30
31991;DHT22;18508;49.386;8.370;2022-07-30T01:07:34;20.00;7.20
31991;DHT22;18508;49.386;8.370;2022-07-30T01:10:03;20.00;7.80
31991;DHT22;18508;49.386;8.370;2022-07-30T01:12:31;19.90;20.10
31991;DHT22;18508;49.386;8.370;2022-07-30T01:15:03;19.90;10.00
31991;DHT22;18508;49.386;8.370;2022-07-30T01:17:33;19.80;11.80
31991;DHT22;18508;49.386;8.370;2022-07-30T01:20:04;19.70;13.80
31991;DHT22;18508;49.386;8.370;2022-07-30T01:22:42;19.70;16.80
31991;DHT22;18508;49.386;8.370;2022-07-30T01:25:16;19.50;18.70
31991;DHT22;18508;49.386;8.370;2022-07-30T01:27:52;19.50;23.90
31991;DHT22;18508;49.386;8.370;2022-07-30T01:30:25;19.40;26.60
31991;DHT22;18508;49.386;8.370;2022-07-30T01:32:55;19.30;31.10
31991;DHT22;18508;49.386;8.370;2022-07-30T01:35:25;19.20;36.50
31991;DHT22;18508;49.386;8.370;2022-07-30T01:37:55;19.10;41.20
31991;DHT22;18508;49.386;8.370;2022-07-30T01:40:25;19.00;46.40
31991;DHT22;18508;49.386;8.370;2022-07-30T01:42:56;19.00;46.60
31991;DHT22;18508;49.386;8.370;2022-07-30T01:45:28;18.90;52.40
31991;DHT22;18508;49.386;8.370;2022-07-30T01:48:03;18.40;66.10
31991;DHT22;18508;49.386;8.370;2022-07-30T01:50:32;18.70;52.70
31991;DHT22;18508;49.386;8.370;2022-07-30T01:53:02;18.70;52.90
31991;DHT22;18508;49.386;8.370;2022-07-30T01:55:35;18.70;55.50
31991;DHT22;18508;49.386;8.370;2022-07-30T01:58:05;18.60;56.80
31991;DHT22;18508;49.386;8.370;2022-07-30T02:00:37;18.60;56.70
31991;DHT22;18508;49.386;8.370;2022-07-30T02:03:06;18.60;59.00
31991;DHT22;18508;49.386;8.370;2022-07-30T02:05:36;18.60;57.30
31991;DHT22;18508;49.386;8.370;2022-07-30T02:08:10;18.60;58.50
31991;DHT22;18508;49.386;8.370;2022-07-30T02:10:41;18.60;58.40
31991;DHT22;18508;49.386;8.370;2022-07-30T02:13:15;18.50;58.50
31991;DHT22;18508;49.386;8.370;2022-07-30T02:15:48;18.50;67.00
31991;DHT22;18508;49.386;8.370;2022-07-30T02:18:22;18.50;63.70
31991;DHT22;18508;49.386;8.370;2022-07-30T02:20:58;18.50;69.00
31991;DHT22;18508;49.386;8.370;2022-07-30T02:23:29;18.40;77.40
31991;DHT22;18508;49.386;8.370;2022-07-30T02:25:58;18.70;89.70
31991;DHT22;18508;49.386;8.370;2022-07-30T02:28:29;18.50;90.90
31991;DHT22;18508;49.386;8.370;2022-07-30T02:31:00;18.10;1.00
31991;DHT22;18508;49.386;8.370;2022-07-30T02:33:43;18.30;1.00
31991;DHT22;18508;49.386;8.370;2022-07-30T02:36:16;18.10;93.00
31991;DHT22;18508;49.386;8.370;2022-07-30T02:38:46;18.40;97.60
31991;DHT22;18508;49.386;8.370;2022-07-30T02:41:21;18.30;97.60
31991;DHT22;18508;49.386;8.370;2022-07-30T02:43:52;17.90;99.90
31991;DHT22;18508;49.386;8.370;2022-07-30T02:46:22;17.90;99.90
31991;DHT22;18508;49.386;8.370;2022-07-30T02:48:52;18.30;99.90
31991;DHT22;18508;49.386;8.370;2022-07-30T02:51:21;17.60;99.90
31991;DHT22;18508;49.386;8.370;2022-07-30T02:53:51;17.50;99.90
31991;DHT22;18508;49.386;8.370;2022-07-30T02:56:20;17.40;99.90
31991;DHT22;18508;49.386;8.370;2022-07-30T02:58:49;17.50;99.90
31991;DHT22;18508;49.386;8.370;2022-07-30T03:01:20;17.70;97.60
31991;DHT22;18508;49.386;8.370;2022-07-30T03:03:50;17.40;99.90
31991;DHT22;18508;49.386;8.370;2022-07-30T03:06:19;17.60;99.90
31991;DHT22;18508;49.386;8.370;2022-07-30T03:08:47;17.60;99.90
31991;DHT22;18508;49.386;8.370;2022-07-30T03:11:18;17.20;99.90
31991;DHT22;18508;49.386;8.370;2022-07-30T03:13:47;17.40;99.90
31991;DHT22;18508;49.386;8.370;2022-07-30T03:16:16;17.50;99.90
31991;DHT22;18508;49.386;8.370;2022-07-30T03:18:47;17.50;99.90
31991;DHT22;18508;49.386;8.370;2022-07-30T03:21:16;17.10;99.90
31991;DHT22;18508;49.386;8.370;2022-07-30T03:23:47;17.30;99.90
31991;DHT22;18508;49.386;8.370;2022-07-30T03:26:19;17.60;99.90
31991;DHT22;18508;49.386;8.370;2022-07-30T03:28:48;16.90;99.90
31991;DHT22;18508;49.386;8.370;2022-07-30T03:31:17;17.30;99.90
31991;DHT22;18508;49.386;8.370;2022-07-30T03:33:49;17.60;62.60
31991;DHT22;18508;49.386;8.370;2022-07-30T03:36:19;16.90;1.00
31991;DHT22;18508;49.386;8.370;2022-07-30T03:38:47;17.00;99.90
31991;DHT22;18508;49.386;8.370;2022-07-30T03:41:15;17.50;1.00
31991;DHT22;18508;49.386;8.370;2022-07-30T03:43:44;17.40;1.00
31991;DHT22;18508;49.386;8.370;2022-07-30T03:46:15;16.70;1.00
31991;DHT22;18508;49.386;8.370;2022-07-30T03:48:44;16.50;1.00
31991;DHT22;18508;49.386;8.370;2022-07-30T03:51:15;16.80;1.00
31991;DHT22;18508;49.386;8.370;2022-07-30T03:53:44;16.80;1.00
31991;DHT22;18508;49.386;8.370;2022-07-30T03:56:13;16.80;1.00
31991;DHT22;18508;49.386;8.370;2022-07-30T03:58:41;16.30;1.00
31991;DHT22;18508;49.386;8.370;2022-07-30T04:01:09;16.50;1.00
31991;DHT22;18508;49.386;8.370;2022-07-30T04:03:37;16.80;1.00
31991;DHT22;18508;49.386;8.370;2022-07-30T04:06:05;16.90;1.00
31991;DHT22;18508;49.386;8.370;2022-07-30T04:08:35;16.80;1.00
31991;DHT22;18508;49.386;8.370;2022-07-30T04:11:03;17.00;1.00
31991;DHT22;18508;49.386;8.370;2022-07-30T04:13:31;17.00;1.00
31991;DHT22;18508;49.386;8.370;2022-07-30T04:16:03;16.70;1.00
31991;DHT22;18508;49.386;8.370;2022-07-30T04:18:53;16.50;1.00
31991;DHT22;18508;49.386;8.370;2022-07-30T04:21:24;16.70;99.90
31991;DHT22;18508;49.386;8.370;2022-07-30T04:23:55;16.70;99.90
31991;DHT22;18508;49.386;8.370;2022-07-30T04:26:31;16.80;1.00
31991;DHT22;18508;49.386;8.370;2022-07-30T04:29:02;16.70;1.30
31991;DHT22;18508;49.386;8.370;2022-07-30T04:31:31;16.60;44.30
31991;DHT22;18508;49.386;8.370;2022-07-30T04:34:08;16.60;87.90
31991;DHT22;18508;49.386;8.370;2022-07-30T04:36:39;16.50;1.00
31991;DHT22;18508;49.386;8.370;2022-07-30T04:39:09;16.50;1.00
31991;DHT22;18508;49.386;8.370;2022-07-30T04:41:38;16.60;1.00
31991;DHT22;18508;49.386;8.370;2022-07-30T04:44:15;16.60;1.00
31991;DHT22;18508;49.386;8.370;2022-07-30T04:46:43;18.00;1.00
31991;DHT22;18508;49.386;8.370;2022-07-30T04:49:13;16.80;19.90
31991;DHT22;18508;49.386;8.370;2022-07-30T04:51:43;16.60;1.00
31991;DHT22;18508;49.386;8.370;2022-07-30T04:54:13;16.70;1.00
31991;DHT22;18508;49.386;8.370;2022-07-30T04:56:44;17.00;1.00
31991;DHT22;18508;49.386;8.370;2022-07-30T04:59:22;16.80;1.00
31991;DHT22;18508;49.386;8.370;2022-07-30T05:01:54;16.90;1.00
31991;DHT22;18508;49.386;8.370;2022-07-30T05:04:23;17.00;1.00
31991;DHT22;18508;49.386;8.370;2022-07-30T05:06:53;16.90;1.00
31991;DHT22;18508;49.386;8.370;2022-07-30T05:09:23;17.20;1.00
31991;DHT22;18508;49.386;8.370;2022-07-30T05:11:51;17.30;1.00
31991;DHT22;18508;49.386;8.370;2022-07-30T05:14:20;17.70;99.90
31991;DHT22;18508;49.386;8.370;2022-07-30T05:16:50;17.60;1.00
31991;DHT22;18508;49.386;8.370;2022-07-30T05:19:19;17.60;1.00
31991;DHT22;18508;49.386;8.370;2022-07-30T05:21:47;17.80;1.00
31991;DHT22;18508;49.386;8.370;2022-07-30T05:24:16;17.80;99.90
31991;DHT22;18508;49.386;8.370;2022-07-30T05:26:46;17.90;99.90
31991;DHT22;18508;49.386;8.370;2022-07-30T05:29:14;17.70;99.90
31991;DHT22;18508;49.386;8.370;2022-07-30T05:31:48;18.10;99.90
31991;DHT22;18508;49.386;8.370;2022-07-30T05:34:17;18.10;99.90
31991;DHT22;18508;49.386;8.370;2022-07-30T05:36:46;18.10;99.90
31991;DHT22;18508;49.386;8.370;2022-07-30T05:39:18;18.50;99.90
31991;DHT22;18508;49.386;8.370;2022-07-30T05:41:48;18.60;43.60
31991;DHT22;18508;49.386;8.370;2022-07-30T05:44:16;18.80;1.00
31991;DHT22;18508;49.386;8.370;2022-07-30T05:46:49;18.90;99.90
31991;DHT22;18508;49.386;8.370;2022-07-30T05:49:18;18.90;99.90
31991;DHT22;18508;49.386;8.370;2022-07-30T05:56:51;19.50;1.00
31991;DHT22;18508;49.386;8.370;2022-07-30T06:01:48;19.60;97.30
31991;DHT22;18508;49.386;8.370;2022-07-30T06:04:16;19.70;99.90
31991;DHT22;18508;49.386;8.370;2022-07-30T06:06:44;19.70;22.30
31991;DHT22;18508;49.386;8.370;2022-07-30T06:09:14;19.80;1.00
31991;DHT22;18508;49.386;8.370;2022-07-30T06:11:48;20.10;99.90
31991;DHT22;18508;49.386;8.370;2022-07-30T06:14:19;20.10;1.00
31991;DHT22;18508;49.386;8.370;2022-07-30T06:16:47;20.50;1.00
31991;DHT22;18508;49.386;8.370;2022-07-30T06:19:15;20.70;1.00
31991;DHT22;18508;49.386;8.370;2022-07-30T06:21:45;20.50;1.00
31991;DHT22;18508;49.386;8.370;2022-07-30T06:24:32;20.70;50.60
31991;DHT22;18508;49.386;8.370;2022-07-30T06:27:00;20.70;51.00
31991;DHT22;18508;49.386;8.370;2022-07-30T06:29:30;20.90;48.80
31991;DHT22;18508;49.386;8.370;2022-07-30T06:31:59;20.90;49.20
31991;DHT22;18508;49.386;8.370;2022-07-30T06:34:27;21.00;45.40
31991;DHT22;18508;49.386;8.370;2022-07-30T06:36:55;21.50;48.50
31991;DHT22;18508;49.386;8.370;2022-07-30T06:39:23;21.40;39.20
31991;DHT22;18508;49.386;8.370;2022-07-30T06:42:11;21.40;38.90
31991;DHT22;18508;49.386;8.370;2022-07-30T06:44:41;21.50;36.80
31991;DHT22;18508;49.386;8.370;2022-07-30T06:47:09;21.60;37.80
31991;DHT22;18508;49.386;8.370;2022-07-30T06:49:38;21.70;35.90
31991;DHT22;18508;49.386;8.370;2022-07-30T06:52:06;21.80;31.80
31991;DHT22;18508;49.386;8.370;2022-07-30T06:54:34;21.80;30.60
31991;DHT22;18508;49.386;8.370;2022-07-30T06:57:02;21.80;35.30
31991;DHT22;18508;49.386;8.370;2022-07-30T06:59:30;22.00;29.80
31991;DHT22;18508;49.386;8.370;2022-07-30T07:02:19;22.20;28.10
31991;DHT22;18508;49.386;8.370;2022-07-30T07:04:47;22.50;24.30
31991;DHT22;18508;49.386;8.370;2022-07-30T07:07:15;22.60;21.80
31991;DHT22;18508;49.386;8.370;2022-07-30T07:10:04;22.70;19.70
31991;DHT22;18508;49.386;8.370;2022-07-30T07:12:32;22.90;17.30
31991;DHT22;18508;49.386;8.370;2022-07-30T07:15:00;22.90;15.10
31991;DHT22;18508;49.386;8.370;2022-07-30T07:17:29;22.90;17.50
31991;DHT22;18508;49.386;8.370;2022-07-30T07:19:57;23.10;17.90
31991;DHT22;18508;49.386;8.370;2022-07-30T07:22:28;23.30;13.70
31991;DHT22;18508;49.386;8.370;2022-07-30T07:24:56;23.20;12.70
31991;DHT22;18508;49.386;8.370;2022-07-30T07:27:24;23.30;11.50
31991;DHT22;18508;49.386;8.370;2022-07-30T07:29:52;23.40;12.70
31991;DHT22;18508;49.386;8.370;2022-07-30T07:32:33;23.50;9.50
31991;DHT22;18508;49.386;8.370;2022-07-30T07:35:02;23.60;8.40
31991;DHT22;18508;49.386;8.370;2022-07-30T07:37:30;23.50;7.20
31991;DHT22;18508;49.386;8.370;2022-07-30T07:39:58;23.60;7.30
31991;DHT22;18508;49.386;8.370;2022-07-30T07:42:26;23.60;4.70
31991;DHT22;18508;49.386;8.370;2022-07-30T07:44:54;23.60;4.20
31991;DHT22;18508;49.386;8.370;2022-07-30T07:47:22;23.80;3.00
31991;DHT22;18508;49.386;8.370;2022-07-30T07:49:55;23.80;1.30
31991;DHT22;18508;49.386;8.370;2022-07-30T07:52:22;23.80;4.70
31991;DHT22;18508;49.386;8.370;2022-07-30T07:54:50;23.90;3.50
31991;DHT22;18508;49.386;8.370;2022-07-30T07:57:19;24.10;3.00
31991;DHT22;18508;49.386;8.370;2022-07-30T07:59:47;24.30;1.00
31991;DHT22;18508;49.386;8.370;2022-07-30T08:02:17;24.40;1.00
31991;DHT22;18508;49.386;8.370;2022-07-30T08:04:45;24.30;1.00
31991;DHT22;18508;49.386;8.370;2022-07-30T08:07:14;24.20;1.00
31991;DHT22;18508;49.386;8.370;2022-07-30T08:09:42;24.20;1.00
31991;DHT22;18508;49.386;8.370;2022-07-30T08:12:11;24.20;1.00
31991;DHT22;18508;49.386;8.370;2022-07-30T08:14:39;24.30;1.00
31991;DHT22;18508;49.386;8.370;2022-07-30T08:17:07;24.30;1.00
31991;DHT22;18508;49.386;8.370;2022-07-30T08:19:35;24.30;1.00
31991;DHT22;18508;49.386;8.370;2022-07-30T08:22:03;24.30;1.00
31991;DHT22;18508;49.386;8.370;2022-07-30T08:24:33;24.00;5.60
31991;DHT22;18508;49.386;8.370;2022-07-30T08:27:01;24.20;1.00
31991;DHT22;18508;49.386;8.370;2022-07-30T08:29:29;24.30;1.00
31991;DHT22;18508;49.386;8.370;2022-07-30T08:31:57;24.40;1.00
31991;DHT22;18508;49.386;8.370;2022-07-30T08:34:26;24.50;1.00
31991;DHT22;18508;49.386;8.370;2022-07-30T08:36:55;24.20;3.90
31991;DHT22;18508;49.386;8.370;2022-07-30T08:39:23;24.60;1.00
31991;DHT22;18508;49.386;8.370;2022-07-30T08:41:53;24.70;1.00
31991;DHT22;18508;49.386;8.370;2022-07-30T08:44:22;24.80;1.00
31991;DHT22;18508;49.386;8.370;2022-07-30T08:46:51;25.40;1.00
31991;DHT22;18508;49.386;8.370;2022-07-30T08:49:22;25.00;1.00
31991;DHT22;18508;49.386;8.370;2022-07-30T08:51:50;25.10;1.00
31991;DHT22;18508;49.386;8.370;2022-07-30T08:54:18;25.20;1.00
31991;DHT22;18508;49.386;8.370;2022-07-30T08:56:47;25.70;1.00
31991;DHT22;18508;49.386;8.370;2022-07-30T08:59:17;25.10;1.00
31991;DHT22;18508;49.386;8.370;2022-07-30T09:01:45;25.40;1.00
31991;DHT22;18508;49.386;8.370;2022-07-30T09:04:13;25.70;1.00
31991;DHT22;18508;49.386;8.370;2022-07-30T09:06:41;25.20;1.00
31991;DHT22;18508;49.386;8.370;2022-07-30T09:09:09;25.60;1.00
31991;DHT22;18508;49.386;8.370;2022-07-30T09:11:37;25.80;1.00
31991;DHT22;18508;49.386;8.370;2022-07-30T09:14:09;25.90;1.00
31991;DHT22;18508;49.386;8.370;2022-07-30T09:16:39;26.20;1.00
31991;DHT22;18508;49.386;8.370;2022-07-30T09:19:12;26.50;1.00
31991;DHT22;18508;49.386;8.370;2022-07-30T09:21:41;26.60;1.00
31991;DHT22;18508;49.386;8.370;2022-07-30T09:24:10;26.50;1.00
31991;DHT22;18508;49.386;8.370;2022-07-30T09:26:52;26.60;1.00
31991;DHT22;18508;49.386;8.370;2022-07-30T09:29:22;26.60;1.00
31991;DHT22;18508;49.386;8.370;2022-07-30T09:31:57;26.50;1.00
31991;DHT22;18508;49.386;8.370;2022-07-30T09:34:26;26.40;1.00
31991;DHT22;18508;49.386;8.370;2022-07-30T09:36:55;26.30;1.00
31991;DHT22;18508;49.386;8.370;2022-07-30T09:39:30;26.70;1.00
31991;DHT22;18508;49.386;8.370;2022-07-30T09:41:59;27.00;1.00
31991;DHT22;18508;49.386;8.370;2022-07-30T09:44:29;27.20;1.00
31991;DHT22;18508;49.386;8.370;2022-07-30T09:46:58;27.60;1.00
31991;DHT22;18508;49.386;8.370;2022-07-30T09:49:28;27.50;1.00
31991;DHT22;18508;49.386;8.370;2022-07-30T09:51:57;27.50;1.00
31991;DHT22;18508;49.386;8.370;2022-07-30T09:54:44;27.40;1.00
31991;DHT22;18508;49.386;8.370;2022-07-30T09:57:18;27.10;1.00
31991;DHT22;18508;49.386;8.370;2022-07-30T10:00:16;27.00;1.00
31991;DHT22;18508;49.386;8.370;2022-07-30T10:02:50;27.00;1.00
31991;DHT22;18508;49.386;8.370;2022-07-30T10:05:19;26.60;1.00
31991;DHT22;18508;49.386;8.370;2022-07-30T10:07:50;27.30;1.00
31991;DHT22;18508;49.386;8.370;2022-07-30T10:10:20;27.20;1.00
31991;DHT22;18508;49.386;8.370;2022-07-30T10:12:54;27.40;1.00
31991;DHT22;18508;49.386;8.370;2022-07-30T10:15:26;27.50;1.00
31991;DHT22;18508;49.386;8.370;2022-07-30T10:17:57;27.40;1.00
31991;DHT22;18508;49.386;8.370;2022-07-30T10:20:26;27.30;1.00
31991;DHT22;18508;49.386;8.370;2022-07-30T10:22:55;27.30;1.00
31991;DHT22;18508;49.386;8.370;2022-07-30T10:25:25;27.20;1.00
31991;DHT22;18508;49.386;8.370;2022-07-30T10:27:54;27.20;1.00
31991;DHT22;18508;49.386;8.370;2022-07-30T10:30:25;27.70;1.00
31991;DHT22;18508;49.386;8.370;2022-07-30T10:32:57;28.10;1.00
31991;DHT22;18508;49.386;8.370;2022-07-30T10:35:27;28.40;1.00
31991;DHT22;18508;49.386;8.370;2022-07-30T10:38:07;28.70;1.00
31991;DHT22;18508;49.386;8.370;2022-07-30T10:40:42;28.80;1.00
31991;DHT22;18508;49.386;8.370;2022-07-30T10:43:44;28.80;1.00
31991;DHT22;18508;49.386;8.370;2022-07-30T10:46:26;28.80;1.00
31991;DHT22;18508;49.386;8.370;2022-07-30T10:49:08;28.70;1.00
31991;DHT22;18508;49.386;8.370;2022-07-30T10:51:46;29.10;1.00
31991;DHT22;18508;49.386;8.370;2022-07-30T10:54:36;28.80;1.00
31991;DHT22;18508;49.386;8.370;2022-07-30T10:57:08;28.80;1.00
31991;DHT22;18508;49.386;8.370;2022-07-30T11:00:12;28.60;1.00
31991;DHT22;18508;49.386;8.370;2022-07-30T11:03:11;28.50;1.00
31991;DHT22;18508;49.386;8.370;2022-07-30T11:05:43;28.10;1.00
31991;DHT22;18508;49.386;8.370;2022-07-30T11:08:29;27.90;1.00
31991;DHT22;18508;49.386;8.370;2022-07-30T11:11:03;28.10;1.00
31991;DHT22;18508;49.386;8.370;2022-07-30T11:13:50;28.10;1.00
31991;DHT22;18508;49.386;8.370;2022-07-30T11:16:21;28.20;1.00
31991;DHT22;18508;49.386;8.370;2022-07-30T11:19:05;28.00;1.00
31991;DHT22;18508;49.386;8.370;2022-07-30T11:25:04;27.90;1.00
31991;DHT22;18508;49.386;8.370;2022-07-30T11:27:40;27.90;1.00
31991;DHT22;18508;49.386;8.370;2022-07-30T11:30:30;28.10;1.00
31991;DHT22;18508;49.386;8.370;2022-07-30T11:33:20;28.20;1.00
31991;DHT22;18508;49.386;8.370;2022-07-30T11:36:06;28.50;1.00
31991;DHT22;18508;49.386;8.370;2022-07-30T11:38:59;28.40;1.00
31991;DHT22;18508;49.386;8.370;2022-07-30T11:41:34;28.90;1.00
31991;DHT22;18508;49.386;8.370;2022-07-30T11:44:24;29.40;1.00
31991;DHT22;18508;49.386;8.370;2022-07-30T11:46:52;29.70;1.00
31991;DHT22;18508;49.386;8.370;2022-07-30T11:49:20;29.90;1.00
31991;DHT22;18508;49.386;8.370;2022-07-30T11:51:49;29.90;1.00
31991;DHT22;18508;49.386;8.370;2022-07-30T11:54:17;30.00;1.00
31991;DHT22;18508;49.386;8.370;2022-07-30T11:56:51;29.90;1.00
31991;DHT22;18508;49.386;8.370;2022-07-30T11:59:19;29.70;1.00
31991;DHT22;18508;49.386;8.370;2022-07-30T12:01:51;29.80;1.00
31991;DHT22;18508;49.386;8.370;2022-07-30T12:04:21;29.60;1.00
31991;DHT22;18508;49.386;8.370;2022-07-30T12:06:50;29.60;1.00
31991;DHT22;18508;49.386;8.370;2022-07-30T12:09:22;29.40;1.00
31991;DHT22;18508;49.386;8.370;2022-07-30T12:11:54;29.70;1.00
31991;DHT22;18508;49.386;8.370;2022-07-30T12:14:22;29.60;1.00
31991;DHT22;18508;49.386;8.370;2022-07-30T12:16:52;29.40;1.00
31991;DHT22;18508;49.386;8.370;2022-07-30T12:19:20;29.60;1.00
31991;DHT22;18508;49.386;8.370;2022-07-30T12:21:48;29.80;1.00
31991;DHT22;18508;49.386;8.370;2022-07-30T12:24:23;30.00;1.00
31991;DHT22;18508;49.386;8.370;2022-07-30T12:27:04;29.80;1.00
31991;DHT22;18508;49.386;8.370;2022-07-30T12:29:32;29.70;1.00
31991;DHT22;18508;49.386;8.370;2022-07-30T12:32:01;29.90;1.00
31991;DHT22;18508;49.386;8.370;2022-07-30T12:34:29;29.90;1.00
31991;DHT22;18508;49.386;8.370;2022-07-30T12:37:06;29.90;1.00
31991;DHT22;18508;49.386;8.370;2022-07-30T12:39:34;29.70;1.00
31991;DHT22;18508;49.386;8.370;2022-07-30T12:42:04;29.80;1.00
31991;DHT22;18508;49.386;8.370;2022-07-30T12:44:36;29.90;1.00
31991;DHT22;18508;49.386;8.370;2022-07-30T12:47:16;29.90;1.00
31991;DHT22;18508;49.386;8.370;2022-07-30T12:49:45;30.30;1.00
31991;DHT22;18508;49.386;8.370;2022-07-30T12:52:20;30.40;1.00
31991;DHT22;18508;49.386;8.370;2022-07-30T12:55:04;30.50;1.00
31991;DHT22;18508;49.386;8.370;2022-07-30T12:57:54;30.50;1.00
31991;DHT22;18508;49.386;8.370;2022-07-30T13:00:23;30.60;1.00
31991;DHT22;18508;49.386;8.370;2022-07-30T13:02:52;30.80;1.00
31991;DHT22;18508;49.386;8.370;2022-07-30T13:08:03;31.80;1.00
31991;DHT22;18508;49.386;8.370;2022-07-30T13:10:31;32.00;1.00
31991;DHT22;18508;49.386;8.370;2022-07-30T13:13:02;31.60;1.00
31991;DHT22;18508;49.386;8.370;2022-07-30T13:15:30;31.80;1.00
31991;DHT22;18508;49.386;8.370;2022-07-30T13:17:58;31.80;1.00
31991;DHT22;18508;49.386;8.370;2022-07-30T13:20:26;31.60;1.00
31991;DHT22;18508;49.386;8.370;2022-07-30T13:22:55;31.70;1.00
31991;DHT22;18508;49.386;8.370;2022-07-30T13:25:27;32.20;1.00
31991;DHT22;18508;49.386;8.370;2022-07-30T13:28:07;32.10;1.00
31991;DHT22;18508;49.386;8.370;2022-07-30T13:30:35;32.40;1.00
31991;DHT22;18508;49.386;8.370;2022-07-30T13:33:03;32.90;1.00
31991;DHT22;18508;49.386;8.370;2022-07-30T13:35:31;32.90;99.90
31991;DHT22;18508;49.386;8.370;2022-07-30T13:37:59;33.00;99.90
31991;DHT22;18508;49.386;8.370;2022-07-30T13:40:28;32.90;99.90
31991;DHT22;18508;49.386;8.370;2022-07-30T13:42:57;33.40;99.90
31991;DHT22;18508;49.386;8.370;2022-07-30T13:45:27;33.70;99.90
31991;DHT22;18508;49.386;8.370;2022-07-30T13:47:55;33.90;99.90
31991;DHT22;18508;49.386;8.370;2022-07-30T13:50:23;33.90;99.90
31991;DHT22;18508;49.386;8.370;2022-07-30T13:52:52;34.10;99.90
31991;DHT22;18508;49.386;8.370;2022-07-30T13:55:28;33.70;99.90
31991;DHT22;18508;49.386;8.370;2022-07-30T13:57:56;33.70;99.90
31991;DHT22;18508;49.386;8.370;2022-07-30T14:00:24;33.50;99.90
31991;DHT22;18508;49.386;8.370;2022-07-30T14:02:59;33.80;99.90
31991;DHT22;18508;49.386;8.370;2022-07-30T14:05:28;34.50;99.90
31991;DHT22;18508;49.386;8.370;2022-07-30T14:07:56;35.00;99.90
31991;DHT22;18508;49.386;8.370;2022-07-30T14:10:24;34.90;99.90
31991;DHT22;18508;49.386;8.370;2022-07-30T14:12:54;34.00;99.90
31991;DHT22;18508;49.386;8.370;2022-07-30T14:15:23;34.00;99.90
31991;DHT22;18508;49.386;8.370;2022-07-30T14:17:51;33.00;99.90
31991;DHT22;18508;49.386;8.370;2022-07-30T14:20:24;32.50;99.90
31991;DHT22;18508;49.386;8.370;2022-07-30T14:22:54;32.00;99.90
31991;DHT22;18508;49.386;8.370;2022-07-30T14:25:23;31.80;99.90
31991;DHT22;18508;49.386;8.370;2022-07-30T14:27:51;31.80;99.90
31991;DHT22;18508;49.386;8.370;2022-07-30T14:30:19;31.60;99.90
31991;DHT22;18508;49.386;8.370;2022-07-30T14:32:47;31.60;99.90
31991;DHT22;18508;49.386;8.370;2022-07-30T14:35:24;31.50;99.90
31991;DHT22;18508;49.386;8.370;2022-07-30T14:37:52;31.20;99.90
31991;DHT22;18508;49.386;8.370;2022-07-30T14:40:20;31.00;99.90
31991;DHT22;18508;49.386;8.370;2022-07-30T14:42:48;31.80;99.90
31991;DHT22;18508;49.386;8.370;2022-07-30T14:45:17;31.60;99.90
31991;DHT22;18508;49.386;8.370;2022-07-30T14:47:45;32.00;99.90
31991;DHT22;18508;49.386;8.370;2022-07-30T14:50:13;32.60;99.90
31991;DHT22;18508;49.386;8.370;2022-07-30T14:52:42;32.70;99.90
31991;DHT22;18508;49.386;8.370;2022-07-30T14:55:12;32.50;99.90
31991;DHT22;18508;49.386;8.370;2022-07-30T14:57:40;33.30;99.90
31991;DHT22;18508;49.386;8.370;2022-07-30T15:00:10;34.20;99.90
31991;DHT22;18508;49.386;8.370;2022-07-30T15:02:39;34.90;99.90
31991;DHT22;18508;49.386;8.370;2022-07-30T15:05:08;34.60;99.90
31991;DHT22;18508;49.386;8.370;2022-07-30T15:07:36;34.30;99.90
31991;DHT22;18508;49.386;8.370;2022-07-30T15:10:07;35.10;99.90
31991;DHT22;18508;49.386;8.370;2022-07-30T15:12:35;35.70;99.90
31991;DHT22;18508;49.386;8.370;2022-07-30T15:15:04;35.50;99.90
31991;DHT22;18508;49.386;8.370;2022-07-30T15:17:34;34.50;99.90
31991;DHT22;18508;49.386;8.370;2022-07-30T15:20:05;34.40;99.90
31991;DHT22;18508;49.386;8.370;2022-07-30T15:22:35;34.30;99.90
31991;DHT22;18508;49.386;8.370;2022-07-30T15:25:06;34.30;99.90
31991;DHT22;18508;49.386;8.370;2022-07-30T15:27:35;34.10;99.90
31991;DHT22;18508;49.386;8.370;2022-07-30T15:30:04;33.00;99.90
31991;DHT22;18508;49.386;8.370;2022-07-30T15:32:32;32.60;99.90
31991;DHT22;18508;49.386;8.370;2022-07-30T15:35:00;32.50;99.90
31991;DHT22;18508;49.386;8.370;2022-07-30T15:37:29;32.40;99.90
31991;DHT22;18508;49.386;8.370;2022-07-30T15:39:57;32.70;99.90
31991;DHT22;18508;49.386;8.370;2022-07-30T15:42:27;32.70;99.90
31991;DHT22;18508;49.386;8.370;2022-07-30T15:44:56;33.40;99.90
31991;DHT22;18508;49.386;8.370;2022-07-30T15:47:43;33.70;99.90
31991;DHT22;18508;49.386;8.370;2022-07-30T15:50:11;34.60;99.90
31991;DHT22;18508;49.386;8.370;2022-07-30T15:52:41;35.70;99.90
31991;DHT22;18508;49.386;8.370;2022-07-30T15:55:09;35.80;99.90
31991;DHT22;18508;49.386;8.370;2022-07-30T15:57:39;35.90;99.90
31991;DHT22;18508;49.386;8.370;2022-07-30T16:00:09;36.40;99.90
31991;DHT22;18508;49.386;8.370;2022-07-30T16:02:38;36.70;99.90
31991;DHT22;18508;49.386;8.370;2022-07-30T16:05:07;36.80;99.90
31991;DHT22;18508;49.386;8.370;2022-07-30T16:07:40;36.40;99.90
31991;DHT22;18508;49.386;8.370;2022-07-30T16:10:08;36.00;99.90
31991;DHT22;18508;49.386;8.370;2022-07-30T16:12:36;35.20;99.90
31991;DHT22;18508;49.386;8.370;2022-07-30T16:15:08;34.90;99.90
31991;DHT22;18508;49.386;8.370;2022-07-30T16:17:36;34.50;99.90